Time;durP1;ratioP1;P1;durP2;ratioP2;P2;SDS_P1;SDS_P2;PMS_P1;PMS_P2;Temp;Humidity;BMP_temperature;BMP_pressure;BME280_temperature;BME280_humidity;BME280_pressure;Samples;Min_cycle;Max_cycle;Signal;HPM_P1;HPM_P2
2022/01/03 00:00:16;;;;;;;11.97;4.23;;;;;;;9.82;91.03;100472.22;5052421;28;20665;-72
2022/01/03 00:02:43;;;;;;;14.57;4.57;;;;;;;9.80;91.74;100467.09;5052591;28;20251;-72
2022/01/03 00:05:09;;;;;;;14.40;4.47;;;;;;;9.80;92.02;100463.66;5034461;28;20219;-73
2022/01/03 00:07:40;;;;;;;14.47;5.00;;;;;;;9.77;91.95;100463.63;5059454;28;20197;-72
2022/01/03 00:10:08;;;;;;;11.30;4.80;;;;;;;9.75;92.70;100444.81;5052754;28;20320;-73
2022/01/03 00:12:35;;;;;;;9.70;4.50;;;;;;;9.74;92.73;100443.09;5047249;28;20656;-72
2022/01/03 00:15:02;;;;;;;14.03;5.10;;;;;;;9.73;93.44;100443.94;5033657;28;20214;-72
2022/01/03 00:17:27;;;;;;;10.63;4.53;;;;;;;9.72;93.38;100437.97;5052040;28;20642;-72
2022/01/03 00:19:53;;;;;;;15.50;5.20;;;;;;;9.70;93.20;100441.34;5051672;28;20300;-72
2022/01/03 00:22:21;;;;;;;17.47;5.27;;;;;;;9.67;93.40;100434.47;5051975;28;20186;-72
2022/01/03 00:24:55;;;;;;;17.50;5.00;;;;;;;9.65;94.24;100430.19;5051901;28;20607;-72
2022/01/03 00:27:22;;;;;;;11.07;4.63;;;;;;;9.67;94.33;100426.81;5051569;28;20209;-72
2022/01/03 00:29:50;;;;;;;11.13;4.50;;;;;;;9.65;93.87;100430.19;5050768;28;20205;-72
2022/01/03 00:32:16;;;;;;;11.57;4.77;;;;;;;9.63;94.60;100432.72;5050396;28;20189;-72
2022/01/03 00:34:41;;;;;;;12.67;4.87;;;;;;;9.60;94.83;100426.69;5050460;28;20276;-72
2022/01/03 00:37:09;;;;;;;10.50;4.70;;;;;;;9.60;95.21;100424.13;5049849;28;20293;-72
2022/01/03 00:39:35;;;;;;;10.27;4.73;;;;;;;9.56;94.62;100417.25;5051480;28;20177;-72
2022/01/03 00:42:00;;;;;;;10.87;5.00;;;;;;;9.57;95.26;100421.53;5051309;28;20281;-72
2022/01/03 00:44:26;;;;;;;11.07;5.07;;;;;;;9.56;95.30;100420.69;5033572;28;20193;-72
2022/01/03 00:46:53;;;;;;;11.30;4.63;;;;;;;9.59;94.84;100419.88;5050521;28;20244;-72
2022/01/03 00:49:19;;;;;;;11.30;5.10;;;;;;;9.59;94.93;100427.53;5054983;28;20235;-72
2022/01/03 00:51:45;;;;;;;8.43;4.53;;;;;;;9.53;94.81;100410.41;5059219;28;20221;-72
2022/01/03 00:54:10;;;;;;;9.50;4.37;;;;;;;9.54;94.32;100409.56;5053864;28;20224;-72
2022/01/03 00:56:43;;;;;;;6.83;4.53;;;;;;;9.53;94.31;100410.41;5056131;28;20774;-72
2022/01/03 00:59:13;;;;;;;9.53;5.30;;;;;;;9.53;95.38;100404.41;5048767;28;20283;-72
2022/01/03 01:01:48;;;;;;;11.20;6.33;;;;;;;9.50;95.18;100415.44;5047700;28;20193;-72
2022/01/03 01:04:15;;;;;;;9.80;6.20;;;;;;;9.53;95.60;100412.94;5043345;28;20181;-72
2022/01/03 01:06:44;;;;;;;12.00;6.70;;;;;;;9.50;96.00;100402.66;5035468;28;20205;-72
2022/01/03 01:09:13;;;;;;;10.40;6.37;;;;;;;9.45;95.59;100409.41;5032826;28;20190;-72
2022/01/03 01:11:44;;;;;;;11.03;6.50;;;;;;;9.46;95.53;100402.59;5049693;28;20857;-72
2022/01/03 01:14:13;;;;;;;10.23;5.87;;;;;;;9.42;95.15;100398.28;5049815;28;20612;-72
2022/01/03 01:16:40;;;;;;;5.13;3.23;;;;;;;9.38;93.80;100399.94;5022020;28;20201;-72
2022/01/03 01:19:05;;;;;;;4.67;2.37;;;;;;;9.35;93.15;100402.41;4996960;28;20228;-72
2022/01/03 01:21:31;;;;;;;4.13;2.07;;;;;;;9.31;92.86;100398.09;5025455;28;20189;-72
2022/01/03 01:23:58;;;;;;;1.50;1.30;;;;;;;9.30;91.77;100403.19;5047030;28;20197;-72
2022/01/03 01:29:09;;;;;;;4.20;1.00;;;;;;;9.17;91.89;100407.22;5052183;28;20739;-72
2022/01/03 01:31:37;;;;;;;3.87;1.20;;;;;;;9.10;92.30;100397.72;5029998;28;20291;-72
2022/01/03 01:34:05;;;;;;;1.77;1.00;;;;;;;9.12;92.41;100403.72;5061153;28;20185;-72
2022/01/03 01:36:32;;;;;;;4.67;1.10;;;;;;;9.07;92.47;100400.22;5032533;28;20600;-72
2022/01/03 01:39:06;;;;;;;2.87;1.10;;;;;;;9.03;93.07;100403.53;5049543;28;20256;-72
2022/01/03 01:41:39;;;;;;;2.33;1.07;;;;;;;9.06;92.05;100408.72;5046228;28;20263;-72
2022/01/03 01:44:08;;;;;;;1.73;0.80;;;;;;;9.06;92.57;100402.75;5048852;28;20196;-72
2022/01/03 01:46:35;;;;;;;1.20;0.90;;;;;;;9.04;92.69;100410.38;5048860;28;20205;-72
2022/01/03 01:49:06;;;;;;;1.87;0.80;;;;;;;9.03;92.47;100406.09;5031339;28;20192;-72
2022/01/03 01:51:36;;;;;;;4.80;1.00;;;;;;;9.01;93.00;100417.13;5050329;28;20214;-72
2022/01/03 01:54:05;;;;;;;1.10;1.00;;;;;;;9.00;92.67;100426.50;5048917;28;20185;-73
2022/01/03 01:56:53;;;;;;;2.80;1.03;;;;;;;8.97;92.67;100425.56;5048729;28;20360;-72
2022/01/03 01:59:31;;;;;;;2.50;1.07;;;;;;;8.97;92.18;100431.53;5032065;28;20225;-72
2022/01/03 02:02:11;;;;;;;2.43;1.17;;;;;;;8.96;93.25;100427.25;5032118;28;20246;-72
2022/01/03 02:04:48;;;;;;;2.20;1.10;;;;;;;8.94;93.42;100438.28;5031496;28;20197;-72
2022/01/03 02:07:31;;;;;;;1.73;1.10;;;;;;;8.94;93.17;100444.22;5061504;28;20195;-72
2022/01/03 02:10:05;;;;;;;1.57;1.13;;;;;;;8.92;93.73;100455.25;5048163;28;20231;-72
2022/01/03 02:12:39;;;;;;;1.67;1.40;;;;;;;8.88;93.35;100459.44;5053300;28;20201;-72
2022/01/03 02:15:11;;;;;;;2.57;1.00;;;;;;;8.87;93.95;100480.69;5028521;28;20256;-72
2022/01/03 02:17:39;;;;;;;1.23;0.97;;;;;;;8.85;94.09;100486.59;5028440;28;20181;-72
2022/01/03 02:20:27;;;;;;;3.23;1.30;;;;;;;8.82;93.10;100489.09;5027913;28;20190;-72
2022/01/03 02:22:58;;;;;;;2.40;1.00;;;;;;;8.81;93.34;100507.78;5028346;28;20170;-72
2022/01/03 02:25:29;;;;;;;1.67;1.00;;;;;;;8.78;94.32;100515.38;5028543;28;20221;-72
2022/01/03 02:27:54;;;;;;;4.00;1.60;;;;;;;8.76;94.88;100525.53;5028327;28;20218;-72
2022/01/03 02:30:24;;;;;;;1.87;0.97;;;;;;;8.71;94.19;100518.66;5030976;28;20248;-72
2022/01/03 02:32:50;;;;;;;3.40;1.20;;;;;;;8.71;94.04;100542.47;5048378;28;20276;-72
2022/01/03 02:35:17;;;;;;;3.33;1.40;;;;;;;8.66;94.58;100541.50;5050702;28;20217;-72
2022/01/03 02:37:47;;;;;;;2.73;1.27;;;;;;;8.66;93.77;100548.31;5062910;28;20226;-72
2022/01/03 02:40:15;;;;;;;2.90;1.37;;;;;;;8.65;94.54;100562.75;5017406;28;20174;-72
2022/01/03 02:42:41;;;;;;;1.37;0.97;;;;;;;8.62;93.60;100575.44;5031004;28;20870;-72
2022/01/03 02:45:11;;;;;;;2.83;1.00;;;;;;;8.59;93.79;100574.50;5053461;28;20284;-72
2022/01/03 02:47:37;;;;;;;2.23;1.00;;;;;;;8.54;92.91;100574.41;5048993;28;20244;-72
2022/01/03 02:50:09;;;;;;;1.60;0.90;;;;;;;8.51;92.30;100579.44;5047518;28;20673;-72
2022/01/03 02:52:36;;;;;;;2.43;0.90;;;;;;;8.50;92.71;100579.41;5047895;28;20196;-72
2022/01/03 02:55:04;;;;;;;2.93;1.17;;;;;;;8.48;92.75;100592.13;5047622;28;20284;-72
2022/01/03 02:57:38;;;;;;;1.80;0.90;;;;;;;8.44;92.60;100590.31;5047620;28;20270;-72
2022/01/03 03:00:06;;;;;;;2.93;1.00;;;;;;;8.43;92.97;100587.75;5029402;28;20188;-72
2022/01/03 03:02:32;;;;;;;2.47;1.00;;;;;;;8.41;92.95;100590.25;5045200;28;20203;-72
2022/01/03 03:05:00;;;;;;;2.80;1.03;;;;;;;8.39;93.15;100599.53;5029522;28;20198;-72
2022/01/03 03:07:30;;;;;;;2.03;0.87;;;;;;;8.38;93.68;100599.53;5046925;28;20186;-73
2022/01/03 03:09:57;;;;;;;3.40;0.90;;;;;;;8.38;92.97;100602.94;5042425;28;20651;-72
2022/01/03 03:12:24;;;;;;;2.90;1.23;;;;;;;8.37;93.04;100606.31;5040335;28;20184;-72
2022/01/03 03:14:49;;;;;;;3.50;0.70;;;;;;;8.37;94.07;100605.44;5032154;28;20186;-72
2022/01/03 03:17:18;;;;;;;5.10;1.20;;;;;;;8.36;93.89;100604.59;5041679;28;20675;-72
2022/01/03 03:19:57;;;;;;;4.90;0.90;;;;;;;8.38;93.40;100607.19;5049362;28;20730;-72
2022/01/03 03:22:25;;;;;;;1.87;0.87;;;;;;;8.36;93.68;100609.69;5049477;28;20182;-72
2022/01/03 03:24:59;;;;;;;2.13;0.83;;;;;;;8.36;93.15;100607.16;5045980;28;20642;-73
2022/01/03 03:27:25;;;;;;;3.03;1.17;;;;;;;8.37;93.89;100615.66;5048360;28;20198;-72
2022/01/03 03:29:51;;;;;;;4.10;1.47;;;;;;;8.36;93.32;100613.94;5045298;28;20215;-72
2022/01/03 03:32:18;;;;;;;3.10;1.23;;;;;;;8.37;93.58;100618.19;5047267;28;20193;-72
2022/01/03 03:34:46;;;;;;;5.33;1.60;;;;;;;8.32;93.80;100619.78;5043691;28;20191;-72
2022/01/03 03:37:12;;;;;;;3.77;1.80;;;;;;;8.28;94.45;100621.41;5039820;28;20185;-72
2022/01/03 03:39:39;;;;;;;2.93;1.23;;;;;;;8.27;94.94;100617.13;5048907;28;20190;-72
2022/01/03 03:42:07;;;;;;;2.70;1.50;;;;;;;8.25;95.81;100611.09;5051705;28;20688;-72
2022/01/03 03:44:34;;;;;;;5.93;1.50;;;;;;;8.22;96.67;100620.38;5058753;28;20196;-72
2022/01/03 03:47:00;;;;;;;5.53;1.63;;;;;;;8.25;95.93;100617.91;5034282;28;20193;-72
2022/01/03 03:49:25;;;;;;;5.17;1.60;;;;;;;8.23;96.42;100620.41;5032689;28;20189;-72
2022/01/03 03:51:50;;;;;;;5.93;1.93;;;;;;;8.26;96.36;100622.19;5033592;28;20212;-72
2022/01/03 03:54:16;;;;;;;5.33;2.03;;;;;;;8.24;96.27;100628.94;5044676;28;20196;-72
2022/01/03 03:56:43;;;;;;;5.17;2.00;;;;;;;8.26;96.35;100620.50;5033402;28;20205;-72
2022/01/03 03:59:09;;;;;;;3.73;1.90;;;;;;;8.24;96.23;100631.50;5029694;28;20189;-72
2022/01/03 04:01:35;;;;;;;5.63;1.77;;;;;;;8.27;95.52;100622.22;5027918;28;20264;-72
2022/01/03 04:04:00;;;;;;;6.03;2.00;;;;;;;8.31;96.42;100633.34;5020614;28;20186;-72
2022/01/03 04:06:26;;;;;;;8.73;2.03;;;;;;;8.33;95.46;100624.03;5044589;28;20292;-72
2022/01/03 04:08:55;;;;;;;7.30;1.80;;;;;;;8.36;95.49;100629.22;5031954;28;20216;-72
2022/01/03 04:11:21;;;;;;;6.17;1.90;;;;;;;8.35;95.74;100632.63;5039885;28;20217;-72
2022/01/03 04:13:47;;;;;;;7.83;2.20;;;;;;;8.35;95.58;100628.38;5038390;28;20190;-72
2022/01/03 04:16:13;;;;;;;5.33;1.90;;;;;;;8.37;94.97;100623.28;5042301;28;20225;-72
2022/01/03 04:18:39;;;;;;;9.13;2.20;;;;;;;8.39;95.62;100617.41;5030609;28;20260;-72
2022/01/03 04:21:04;;;;;;;7.90;2.17;;;;;;;8.40;95.44;100615.72;5036942;28;20300;-72
2022/01/03 04:23:30;;;;;;;7.33;2.00;;;;;;;8.40;95.46;100618.28;5051317;28;20647;-72
2022/01/03 04:25:55;;;;;;;8.13;2.47;;;;;;;8.42;94.66;100620.03;5050728;28;20219;-72
2022/01/03 04:28:21;;;;;;;16.23;3.20;;;;;;;8.43;95.63;100619.22;5031744;28;20190;-72
2022/01/03 04:30:46;;;;;;;11.70;3.23;;;;;;;8.42;95.03;100607.28;5052604;28;20210;-72
2022/01/03 04:33:12;;;;;;;12.70;3.00;;;;;;;8.42;95.15;100617.50;5036243;28;20194;-72
2022/01/03 04:35:37;;;;;;;8.13;2.97;;;;;;;8.44;94.79;100615.81;5051135;28;20247;-72
2022/01/03 04:38:04;;;;;;;10.27;2.90;;;;;;;8.48;94.36;100619.34;5051131;28;20198;-72
2022/01/03 04:40:30;;;;;;;9.50;2.73;;;;;;;8.50;94.59;100621.09;5051089;28;20197;-72
2022/01/03 04:42:57;;;;;;;13.43;3.40;;;;;;;8.50;95.50;100613.44;5036189;28;20205;-72
2022/01/03 04:45:22;;;;;;;9.13;2.50;;;;;;;8.51;95.14;100621.94;5050983;28;20216;-72
2022/01/03 04:47:48;;;;;;;10.90;2.53;;;;;;;8.51;94.92;100614.28;5041167;28;20189;-72
2022/01/03 04:50:14;;;;;;;9.73;2.70;;;;;;;8.51;95.40;100627.91;5030087;28;20200;-72
2022/01/03 04:52:39;;;;;;;14.13;2.93;;;;;;;8.52;95.32;100621.13;5056322;28;20190;-73
2022/01/03 04:55:05;;;;;;;14.23;2.97;;;;;;;8.52;96.19;100616.03;5041746;28;20231;-73
2022/01/03 04:57:30;;;;;;;10.50;2.43;;;;;;;8.53;95.88;100623.69;5036664;28;20232;-72
2022/01/03 04:59:56;;;;;;;8.23;2.50;;;;;;;8.53;95.42;100617.75;5052109;28;20188;-72
2022/01/03 05:02:21;;;;;;;15.70;4.00;;;;;;;8.53;96.00;100623.69;5027666;28;20663;-72
2022/01/03 05:04:47;;;;;;;8.97;3.10;;;;;;;8.54;95.99;100620.34;5037372;28;20224;-72
2022/01/03 05:07:12;;;;;;;9.70;2.63;;;;;;;8.58;96.13;100618.72;5063356;28;21124;-72
2022/01/03 05:09:38;;;;;;;10.23;3.07;;;;;;;8.57;95.80;100615.28;5032808;28;20706;-72
2022/01/03 05:12:05;;;;;;;11.63;3.20;;;;;;;8.56;95.97;100616.13;5039647;28;20256;-72
2022/01/03 05:14:31;;;;;;;14.47;3.00;;;;;;;8.57;95.88;100612.75;5036494;28;20182;-72
2022/01/03 05:16:57;;;;;;;11.23;3.43;;;;;;;8.59;95.54;100616.22;5045045;28;20643;-72
2022/01/03 05:19:24;;;;;;;15.13;3.50;;;;;;;8.60;95.73;100610.28;5040582;28;20205;-72
2022/01/03 05:21:50;;;;;;;17.23;3.50;;;;;;;8.62;95.82;100615.41;5034711;28;20205;-72
2022/01/03 05:24:17;;;;;;;10.17;3.20;;;;;;;8.63;96.17;100612.91;5042799;28;20268;-72
2022/01/03 05:26:43;;;;;;;14.10;3.07;;;;;;;8.66;96.18;100614.66;5040156;28;20198;-72
2022/01/03 05:29:08;;;;;;;15.07;3.83;;;;;;;8.67;95.66;100614.69;5042941;28;20185;-72
2022/01/03 05:31:34;;;;;;;10.57;3.40;;;;;;;8.68;95.55;100613.88;5044853;28;20210;-72
2022/01/03 05:34:00;;;;;;;13.20;2.97;;;;;;;8.69;94.93;100607.94;5035542;28;20231;-72
2022/01/03 05:36:27;;;;;;;11.20;2.93;;;;;;;8.68;95.94;100603.66;5035213;28;20213;-72
2022/01/03 05:38:52;;;;;;;11.33;2.90;;;;;;;8.70;95.11;100619.03;5053846;28;20271;-72
2022/01/03 05:41:18;;;;;;;12.13;3.40;;;;;;;8.73;95.31;100616.50;5051209;28;20185;-72
2022/01/03 05:43:45;;;;;;;22.27;3.53;;;;;;;8.70;95.61;100614.75;5025609;28;20236;-72
2022/01/03 05:46:12;;;;;;;17.87;3.50;;;;;;;8.70;95.90;100619.88;5029111;28;20206;-72
2022/01/03 05:48:38;;;;;;;14.93;2.87;;;;;;;8.71;95.61;100621.56;5034422;28;20188;-72
2022/01/03 05:51:04;;;;;;;14.17;3.30;;;;;;;8.71;95.52;100619.03;5051336;28;20205;-72
2022/01/03 05:53:30;;;;;;;15.30;3.33;;;;;;;8.70;94.97;100622.41;5029678;28;20182;-72
2022/01/03 05:55:57;;;;;;;13.70;4.20;;;;;;;8.71;95.54;100624.13;5042149;28;20251;-72
2022/01/03 05:58:23;;;;;;;13.37;3.63;;;;;;;8.72;95.41;100625.00;5050545;28;20197;-72
2022/01/03 06:00:49;;;;;;;12.03;3.23;;;;;;;8.72;95.41;100635.22;5027537;28;20182;-72
2022/01/03 06:03:19;;;;;;;18.60;3.50;;;;;;;8.71;95.52;100620.72;5043864;28;20188;-72
2022/01/03 06:08:24;;;;;;;14.27;3.87;;;;;;;8.69;95.80;100620.69;5049715;28;20628;-72
2022/01/03 06:10:50;;;;;;;14.87;3.73;;;;;;;8.73;95.49;100630.16;5050372;28;20212;-72
2022/01/03 06:13:26;;;;;;;16.57;4.10;;;;;;;8.73;95.70;100624.16;5047751;28;20213;-72
2022/01/03 06:15:53;;;;;;;12.80;4.20;;;;;;;8.73;95.95;100632.72;5046362;28;20205;-72
2022/01/03 06:18:20;;;;;;;13.93;4.07;;;;;;;8.77;95.68;100631.06;5030363;28;20212;-72
2022/01/03 06:20:49;;;;;;;20.10;4.10;;;;;;;8.76;95.25;100631.91;5046863;28;20217;-72
2022/01/03 06:23:18;;;;;;;22.00;5.00;;;;;;;8.78;95.92;100636.22;5048082;28;20277;-72
2022/01/03 06:25:44;;;;;;;17.67;4.43;;;;;;;8.77;95.60;100626.84;5045894;28;20210;-72
2022/01/03 06:28:09;;;;;;;17.07;4.27;;;;;;;8.78;95.15;100640.44;5018199;28;20250;-72
2022/01/03 06:30:42;;;;;;;25.00;4.67;;;;;;;8.77;95.05;100629.41;5037668;28;20220;-72
2022/01/03 06:33:09;;;;;;;23.27;4.47;;;;;;;8.77;94.90;100631.06;5032070;28;20193;-72
2022/01/03 06:35:35;;;;;;;17.80;4.73;;;;;;;8.76;95.50;100631.91;5031402;28;20296;-72
2022/01/03 06:38:03;;;;;;;14.60;4.00;;;;;;;8.76;95.49;100642.97;5049740;28;20182;-72
2022/01/03 06:40:29;;;;;;;17.50;4.50;;;;;;;8.74;95.56;100641.22;5032001;28;20176;-72
2022/01/03 06:42:55;;;;;;;16.07;4.20;;;;;;;8.72;94.66;100643.75;5000673;28;20182;-72
2022/01/03 06:45:22;;;;;;;19.23;4.53;;;;;;;8.75;93.81;100641.25;5059361;28;20215;-72
2022/01/03 06:47:50;;;;;;;19.07;3.87;;;;;;;8.76;94.63;100647.22;5068641;28;20196;-72
2022/01/03 06:50:17;;;;;;;23.60;4.07;;;;;;;8.76;94.02;100645.53;5068209;28;20184;-72
2022/01/03 06:52:42;;;;;;;29.87;5.07;;;;;;;8.75;93.28;100643.81;5068558;28;20561;-72
2022/01/03 06:55:08;;;;;;;18.37;4.13;;;;;;;8.76;93.57;100640.41;5068178;28;20301;-72
2022/01/03 06:57:34;;;;;;;17.60;3.63;;;;;;;8.77;92.78;100633.63;5068224;28;20183;-73
2022/01/03 07:00:00;;;;;;;15.07;3.80;;;;;;;8.76;93.51;100640.41;5051474;28;20284;-72
2022/01/03 07:02:25;;;;;;;18.87;4.20;;;;;;;8.73;93.36;100635.25;5045182;28;20225;-72
2022/01/03 07:04:50;;;;;;;16.47;4.30;;;;;;;8.75;92.40;100635.31;5029559;28;20194;-72
2022/01/03 07:07:16;;;;;;;20.20;3.73;;;;;;;8.73;93.44;100640.38;5029604;28;20189;-72
2022/01/03 07:09:41;;;;;;;20.40;3.93;;;;;;;8.69;93.25;100641.13;5029345;28;20806;-72
2022/01/03 07:12:07;;;;;;;19.13;4.63;;;;;;;8.66;93.58;100637.63;5029600;28;20772;-72
2022/01/03 07:19:57;;;;;;;21.60;4.47;;;;;;;8.68;92.94;100644.50;5046984;28;20202;-72
2022/01/03 07:22:23;;;;;;;22.83;4.03;;;;;;;8.72;92.83;100643.75;5049178;28;20185;-72
2022/01/03 07:24:51;;;;;;;23.67;4.40;;;;;;;8.73;92.43;100652.25;5049416;28;20651;-72
2022/01/03 07:27:17;;;;;;;19.63;3.97;;;;;;;8.74;93.13;100646.31;5049344;28;20178;-71
2022/01/03 07:29:43;;;;;;;17.70;4.43;;;;;;;8.75;92.67;100651.47;5048932;28;20856;-73
2022/01/03 07:32:09;;;;;;;19.10;4.07;;;;;;;8.75;93.28;100648.06;5049233;28;20213;-73
2022/01/03 07:34:35;;;;;;;18.80;3.83;;;;;;;8.73;92.93;100658.22;5048327;28;20697;-72
2022/01/03 07:37:00;;;;;;;20.33;4.30;;;;;;;8.73;92.78;100665.88;5047543;28;20229;-74
2022/01/03 07:39:25;;;;;;;20.40;4.90;;;;;;;8.77;91.50;100661.72;5057107;28;20575;-72
2022/01/03 07:41:51;;;;;;;21.73;4.77;;;;;;;8.76;92.34;100668.50;5048734;28;20178;-73
2022/01/03 07:44:16;;;;;;;18.53;3.40;;;;;;;8.71;93.53;100672.63;5048653;28;20194;-74
2022/01/03 07:46:42;;;;;;;22.27;4.53;;;;;;;8.70;93.09;100670.06;5049536;28;20284;-72
2022/01/03 07:49:07;;;;;;;19.57;3.70;;;;;;;8.67;92.83;100669.97;5052725;28;20690;-73
2022/01/03 07:51:33;;;;;;;15.60;4.03;;;;;;;8.66;92.94;100671.66;5051683;28;20225;-74
2022/01/03 07:53:58;;;;;;;23.30;4.10;;;;;;;8.65;92.65;100669.06;5052563;28;20182;-73
2022/01/03 07:56:24;;;;;;;17.20;3.67;;;;;;;8.67;92.75;100669.97;5052310;28;20209;-73
2022/01/03 07:58:49;;;;;;;17.97;4.20;;;;;;;8.66;92.89;100668.25;5042981;28;20203;-73
2022/01/03 08:01:15;;;;;;;19.40;4.53;;;;;;;8.67;92.42;100668.28;5030069;28;20248;-74
2022/01/03 08:03:40;;;;;;;24.23;4.13;;;;;;;8.67;92.37;100669.97;5048969;28;20193;-73
2022/01/03 08:06:08;;;;;;;16.20;3.70;;;;;;;8.68;92.82;100672.56;5051873;28;20213;-74
2022/01/03 08:08:34;;;;;;;17.27;5.13;;;;;;;8.66;92.99;100675.91;5030913;28;20208;-73
2022/01/03 08:10:59;;;;;;;23.57;4.80;;;;;;;8.66;92.83;100668.25;5044272;28;20269;-74
2022/01/03 08:13:25;;;;;;;22.70;5.33;;;;;;;8.69;92.46;100673.41;5034056;28;20282;-74
2022/01/03 08:15:50;;;;;;;21.33;5.07;;;;;;;8.68;92.32;100681.91;5051786;28;20217;-73
2022/01/03 08:18:16;;;;;;;20.43;5.67;;;;;;;8.77;92.67;100684.69;5051586;28;20190;-72
2022/01/03 08:20:41;;;;;;;22.57;5.63;;;;;;;8.96;93.25;100682.59;5051159;28;20190;-72
2022/01/03 08:23:06;;;;;;;26.67;6.20;;;;;;;9.11;92.82;100680.38;5039111;28;20269;-73
2022/01/03 08:25:36;;;;;;;20.80;5.27;;;;;;;9.05;92.05;100687.91;5039954;28;20218;-73
2022/01/03 08:28:06;;;;;;;18.73;5.83;;;;;;;9.09;92.30;100676.94;5032059;28;20174;-73
2022/01/03 08:30:32;;;;;;;19.00;5.10;;;;;;;9.01;90.82;100687.81;5030432;28;20222;-73
2022/01/03 08:32:57;;;;;;;21.50;5.37;;;;;;;8.93;91.68;100686.75;5050355;28;20565;-72
2022/01/03 08:35:24;;;;;;;14.37;5.23;;;;;;;8.93;91.50;100692.72;5052105;28;20259;-72
2022/01/03 08:37:50;;;;;;;22.40;5.53;;;;;;;8.94;91.33;100680.84;5051628;28;20228;-72
2022/01/03 08:40:16;;;;;;;23.43;5.17;;;;;;;8.97;91.51;100686.88;5051419;28;20181;-73
2022/01/03 08:42:41;;;;;;;19.57;5.10;;;;;;;8.97;91.48;100691.09;5049978;28;20682;-73
2022/01/03 08:45:07;;;;;;;20.57;4.83;;;;;;;8.94;91.36;100694.44;5051130;28;20681;-72
2022/01/03 08:47:32;;;;;;;26.33;5.40;;;;;;;8.96;91.50;100697.06;5051152;28;20552;-72
2022/01/03 08:49:57;;;;;;;29.53;5.43;;;;;;;8.90;92.01;100690.09;5050968;28;20693;-73
2022/01/03 08:52:23;;;;;;;23.63;5.20;;;;;;;8.87;91.25;100692.59;5043223;28;20233;-75
2022/01/03 08:54:48;;;;;;;17.37;4.97;;;;;;;8.86;91.45;100693.44;5047698;28;20209;-74
2022/01/03 08:57:13;;;;;;;17.10;4.67;;;;;;;8.84;91.48;100691.69;5048725;28;20205;-74
2022/01/03 08:59:39;;;;;;;23.70;5.57;;;;;;;8.81;91.61;100691.59;5031595;28;20197;-74
2022/01/03 09:02:05;;;;;;;25.73;4.70;;;;;;;8.83;91.22;100685.69;5031127;28;20174;-73
2022/01/03 09:04:30;;;;;;;21.47;4.17;;;;;;;8.81;91.52;100674.56;4996817;28;20236;-74
2022/01/03 09:06:57;;;;;;;20.13;4.67;;;;;;;8.84;91.21;100684.03;5042670;28;20853;-74
2022/01/03 09:09:23;;;;;;;18.07;4.07;;;;;;;8.87;90.84;100686.63;5050723;28;20227;-74
2022/01/03 09:11:48;;;;;;;18.03;4.20;;;;;;;8.96;89.36;100682.59;5051007;28;20217;-74
2022/01/03 09:14:13;;;;;;;23.80;4.40;;;;;;;9.19;89.07;100688.22;5050872;28;20210;-74
2022/01/03 09:16:39;;;;;;;19.20;4.03;;;;;;;9.27;88.10;100687.53;5050105;28;20220;-75
2022/01/03 09:19:04;;;;;;;20.43;4.13;;;;;;;9.06;89.74;100681.09;5022253;28;20233;-73
2022/01/03 09:21:29;;;;;;;20.63;4.40;;;;;;;8.98;91.07;100683.50;5050819;28;20190;-72
2022/01/03 09:24:21;;;;;;;23.03;4.60;;;;;;;8.93;91.21;100686.75;5050432;28;20181;-75
2022/01/03 09:29:25;;;;;;;24.00;4.63;;;;;;;8.82;92.75;100688.19;5050257;28;20193;-75
2022/01/03 09:31:50;;;;;;;24.33;4.30;;;;;;;8.78;94.02;100683.84;5032486;28;20275;-74
2022/01/03 09:34:15;;;;;;;23.77;5.13;;;;;;;8.76;94.61;100683.81;5032396;28;20287;-74
2022/01/03 09:36:41;;;;;;;20.37;5.17;;;;;;;8.80;93.89;100677.94;5050533;28;20615;-73
2022/01/03 09:39:07;;;;;;;21.20;4.70;;;;;;;8.93;94.16;100677.41;5037205;28;20195;-75
2022/01/03 09:41:33;;;;;;;22.70;4.33;;;;;;;9.14;93.11;100677.03;5049129;28;20177;-74
2022/01/03 09:44:11;;;;;;;24.53;5.33;;;;;;;9.15;92.97;100686.41;5050274;28;20190;-75
2022/01/03 09:46:39;;;;;;;19.57;4.50;;;;;;;9.36;92.45;100674.13;5049791;28;20229;-75
2022/01/03 09:49:07;;;;;;;23.50;4.77;;;;;;;9.25;93.01;100673.88;5049716;28;20189;-74
2022/01/03 09:51:33;;;;;;;22.73;5.13;;;;;;;9.30;91.88;100679.97;5049564;28;20218;-74
2022/01/03 09:54:04;;;;;;;20.37;4.60;;;;;;;9.79;90.65;100664.81;5050295;28;20728;-74
2022/01/03 09:56:32;;;;;;;22.63;5.03;;;;;;;9.58;90.79;100663.53;5050185;28;20206;-74
2022/01/03 09:59:00;;;;;;;17.77;4.87;;;;;;;9.47;90.32;100662.44;5049347;28;20289;-73
2022/01/03 10:01:26;;;;;;;21.40;4.27;;;;;;;9.74;89.77;100655.31;5048777;28;20211;-73
2022/01/03 10:03:52;;;;;;;18.73;3.80;;;;;;;9.77;89.26;100650.28;5050219;28;20197;-73
2022/01/03 10:06:19;;;;;;;20.63;4.60;;;;;;;9.61;88.98;100651.66;5049955;28;20691;-73
2022/01/03 10:08:46;;;;;;;21.67;5.07;;;;;;;9.56;89.70;100658.38;5048429;28;20194;-73
2022/01/03 10:11:11;;;;;;;25.53;4.47;;;;;;;9.47;89.12;100655.63;5048114;28;20220;-73
2022/01/03 10:13:37;;;;;;;21.07;5.07;;;;;;;10.03;88.66;100662.72;5049891;28;20280;-73
2022/01/03 10:16:03;;;;;;;18.97;4.67;;;;;;;9.91;87.73;100657.34;5049809;28;20267;-74
2022/01/03 10:18:28;;;;;;;24.77;5.57;;;;;;;10.79;86.70;100642.69;5049674;28;20182;-74
2022/01/03 10:20:55;;;;;;;23.60;5.10;;;;;;;10.60;86.08;100645.81;5049642;28;20196;-73
2022/01/03 10:23:20;;;;;;;16.77;4.63;;;;;;;10.33;86.41;100637.69;5048376;28;20190;-73
2022/01/03 10:25:49;;;;;;;22.87;4.90;;;;;;;10.29;87.71;100633.38;5048806;28;20221;-73
2022/01/03 10:28:28;;;;;;;19.47;4.60;;;;;;;9.93;89.32;100639.47;5049392;28;20193;-73
2022/01/03 10:30:54;;;;;;;30.70;6.20;;;;;;;9.84;90.04;100631.63;5049513;28;20221;-73
2022/01/03 10:33:22;;;;;;;19.87;5.30;;;;;;;9.88;90.54;100649.63;5049585;28;20193;-73
2022/01/03 10:35:56;;;;;;;24.43;5.73;;;;;;;9.81;90.58;100646.94;5049342;28;20216;-73
2022/01/03 10:38:33;;;;;;;24.13;5.27;;;;;;;9.75;90.22;100640.00;5049362;28;20721;-73
2022/01/03 10:41:14;;;;;;;21.60;5.67;;;;;;;9.70;90.21;100638.19;5049538;28;20177;-73
2022/01/03 10:43:40;;;;;;;26.47;4.93;;;;;;;9.68;91.15;100632.19;5029455;28;20189;-74
2022/01/03 10:46:21;;;;;;;27.73;6.33;;;;;;;9.73;91.23;100625.47;5015074;28;20227;-74
2022/01/03 10:48:48;;;;;;;23.83;5.47;;;;;;;9.74;91.36;100619.53;5047687;28;20192;-73
2022/01/03 10:51:21;;;;;;;27.57;5.60;;;;;;;9.69;91.43;100621.13;5049262;28;20238;-73
2022/01/03 10:53:47;;;;;;;28.13;5.37;;;;;;;9.56;92.28;100635.38;5047737;28;20190;-74
2022/01/03 10:56:33;;;;;;;23.43;6.43;;;;;;;9.43;92.71;100635.97;5049124;28;20286;-73
2022/01/03 10:59:25;;;;;;;21.67;5.30;;;;;;;9.40;93.04;100643.53;5048140;28;20284;-74
2022/01/03 11:02:01;;;;;;;17.17;4.40;;;;;;;9.59;92.01;100639.69;5049249;28;20173;-74
2022/01/03 11:04:54;;;;;;;17.87;4.50;;;;;;;9.60;91.73;100649.06;5049217;28;20196;-75
2022/01/03 11:13:18;;;;;;;23.47;5.20;;;;;;;9.59;91.44;100632.84;5031356;28;20193;-74
2022/01/03 11:16:03;;;;;;;22.30;5.37;;;;;;;9.60;90.62;100626.94;5043977;28;20225;-74
2022/01/03 11:18:43;;;;;;;29.60;6.20;;;;;;;9.64;91.22;100626.13;5029192;28;20181;-74
2022/01/03 11:21:18;;;;;;;25.13;5.23;;;;;;;9.94;89.89;100624.16;5029056;28;20190;-74
2022/01/03 11:23:47;;;;;;;19.73;5.30;;;;;;;10.28;88.74;100615.44;5044441;28;20190;-74
2022/01/03 11:26:16;;;;;;;25.23;5.10;;;;;;;10.63;87.12;100610.03;5027677;28;20213;-75
2022/01/03 11:28:43;;;;;;;20.90;5.23;;;;;;;10.47;86.43;100602.09;5029061;28;20175;-74
2022/01/03 11:31:10;;;;;;;22.97;5.77;;;;;;;10.45;87.20;100609.72;5029125;28;20210;-74
2022/01/03 11:33:37;;;;;;;26.07;5.57;;;;;;;10.13;87.49;100607.50;5029727;28;20206;-74
2022/01/03 11:36:04;;;;;;;23.50;5.47;;;;;;;9.90;88.20;100594.25;5027912;28;20211;-75
2022/01/03 11:38:31;;;;;;;21.73;4.83;;;;;;;9.82;87.99;100587.28;5029072;28;20920;-74
2022/01/03 11:41:03;;;;;;;23.80;5.00;;;;;;;9.71;88.30;100581.09;5027706;28;20186;-76
2022/01/03 11:43:29;;;;;;;32.47;5.73;;;;;;;9.66;88.20;100580.16;5028940;28;20208;-73
2022/01/03 11:45:55;;;;;;;35.13;5.30;;;;;;;9.62;87.98;100574.13;5027334;28;20949;-74
2022/01/03 11:48:21;;;;;;;22.80;5.40;;;;;;;9.86;87.16;100582.25;5044827;28;20280;-75